地図

経路データ

SID SEASON NUMBER BASIN SUBBASIN NAME ISO_TIME NATURE LAT LON WMO_WIND WMO_PRES WMO_AGENCY TRACK_TYPE DIST2LAND LANDFALL IFLAG USA_AGENCY USA_ATCF_ID USA_LAT USA_LON USA_RECORD USA_STATUS USA_WIND USA_PRES USA_SSHS USA_R34_NE USA_R34_SE USA_R34_SW USA_R34_NW USA_R50_NE USA_R50_SE USA_R50_SW USA_R50_NW USA_R64_NE USA_R64_SE USA_R64_SW USA_R64_NW USA_POCI USA_ROCI USA_RMW USA_EYE TOKYO_LAT TOKYO_LON TOKYO_GRADE TOKYO_WIND TOKYO_PRES TOKYO_R50_DIR TOKYO_R50_LONG TOKYO_R50_SHORT TOKYO_R30_DIR TOKYO_R30_LONG TOKYO_R30_SHORT TOKYO_LAND CMA_LAT CMA_LON CMA_CAT CMA_WIND CMA_PRES HKO_LAT HKO_LON HKO_CAT HKO_WIND HKO_PRES NEWDELHI_LAT NEWDELHI_LON NEWDELHI_GRADE NEWDELHI_WIND NEWDELHI_PRES NEWDELHI_CI NEWDELHI_DP NEWDELHI_POCI REUNION_LAT REUNION_LON REUNION_TYPE REUNION_WIND REUNION_PRES REUNION_TNUM REUNION_CI REUNION_RMW REUNION_R34_NE REUNION_R34_SE REUNION_R34_SW REUNION_R34_NW REUNION_R50_NE REUNION_R50_SE REUNION_R50_SW REUNION_R50_NW REUNION_R64_NE REUNION_R64_SE REUNION_R64_SW REUNION_R64_NW BOM_LAT BOM_LON BOM_TYPE BOM_WIND BOM_PRES BOM_TNUM BOM_CI BOM_RMW BOM_R34_NE BOM_R34_SE BOM_R34_SW BOM_R34_NW BOM_R50_NE BOM_R50_SE BOM_R50_SW BOM_R50_NW BOM_R64_NE BOM_R64_SE BOM_R64_SW BOM_R64_NW BOM_ROCI BOM_POCI BOM_EYE BOM_POS_METHOD BOM_PRES_METHOD NADI_LAT NADI_LON NADI_CAT NADI_WIND NADI_PRES WELLINGTON_LAT WELLINGTON_LON WELLINGTON_WIND WELLINGTON_PRES DS824_LAT DS824_LON DS824_STAGE DS824_WIND DS824_PRES TD9636_LAT TD9636_LON TD9636_STAGE TD9636_WIND TD9636_PRES TD9635_LAT TD9635_LON TD9635_WIND TD9635_PRES TD9635_ROCI NEUMANN_LAT NEUMANN_LON NEUMANN_CLASS NEUMANN_WIND NEUMANN_PRES MLC_LAT MLC_LON MLC_CLASS MLC_WIND MLC_PRES USA_GUST BOM_GUST BOM_GUST_PER REUNION_GUST REUNION_GUST_PER USA_SEAHGT USA_SEARAD_NE USA_SEARAD_SE USA_SEARAD_SW USA_SEARAD_NW STORM_SPEED STORM_DIR
1955283N29318 1955 84 NA NA NOT_NAMED 1955-10-10 06:00:00 TS 28.8000 -42.2000 40 hurdat_atl main 2199 2192 O_____________ hurdat_atl AL121955 28.8000 -42.2000 TS 40 0 4 270
1955283N29318 1955 84 NA NA NOT_NAMED 1955-10-10 09:00:00 TS 28.8001 -42.4000 main 2192 2184 P_____________ AL121955 28.8001 -42.4000 TS 42 0 4 270
1955283N29318 1955 84 NA NA NOT_NAMED 1955-10-10 12:00:00 TS 28.8000 -42.6000 45 hurdat_atl main 2184 2177 O_____________ hurdat_atl AL121955 28.8000 -42.6000 TS 45 0 4 270
1955283N29318 1955 84 NA NA NOT_NAMED 1955-10-10 15:00:00 TS 28.8000 -42.8000 main 2177 2170 P_____________ AL121955 28.8000 -42.8000 TS 47 0 4 270
1955283N29318 1955 84 NA NA NOT_NAMED 1955-10-10 18:00:00 TS 28.8000 -43.0000 50 hurdat_atl main 2170 2163 O_____________ hurdat_atl AL121955 28.8000 -43.0000 TS 50 0 4 270
1955283N29318 1955 84 NA NA NOT_NAMED 1955-10-10 21:00:00 TS 28.8000 -43.2000 main 2163 2156 P_____________ AL121955 28.8000 -43.2000 TS 50 0 4 270
1955283N29318 1955 84 NA NA NOT_NAMED 1955-10-11 00:00:00 TS 28.8000 -43.4000 50 hurdat_atl main 2156 2149 O_____________ hurdat_atl AL121955 28.8000 -43.4000 TS 50 0 4 270
1955283N29318 1955 84 NA NA NOT_NAMED 1955-10-11 03:00:00 TS 28.8000 -43.6000 main 2149 2143 P_____________ AL121955 28.8000 -43.6000 TS 52 0 4 270
1955283N29318 1955 84 NA NA NOT_NAMED 1955-10-11 06:00:00 TS 28.8000 -43.8000 55 hurdat_atl main 2143 2136 O_____________ hurdat_atl AL121955 28.8000 -43.8000 TS 55 0 4 268
1955283N29318 1955 84 NA NA NOT_NAMED 1955-10-11 09:00:00 TS 28.7850 -44.0151 main 2136 2130 P_____________ AL121955 28.7850 -44.0151 TS 55 0 4 270
1955283N29318 1955 84 NA NA NOT_NAMED 1955-10-11 12:00:00 TS 28.8000 -44.2000 55 hurdat_atl main 2130 2116 O_____________ hurdat_atl AL121955 28.8000 -44.2000 TS 55 0 3 287
1955283N29318 1955 84 NA NA NOT_NAMED 1955-10-11 15:00:00 TS 28.8700 -44.3300 main 2116 2102 P_____________ AL121955 28.8700 -44.3300 TS 52 0 3 318
1955283N29318 1955 84 NA NA NOT_NAMED 1955-10-11 18:00:00 TS 29.0000 -44.4000 50 hurdat_atl main 2102 2081 O_____________ hurdat_atl AL121955 29.0000 -44.4000 TS 50 0 3 345
1955283N29318 1955 84 NA NA NOT_NAMED 1955-10-11 21:00:00 TS 29.1925 -44.4300 main 2081 2060 P_____________ AL121955 29.1925 -44.4300 TS 50 0 4 0
1955283N29318 1955 84 NA NA NOT_NAMED 1955-10-12 00:00:00 TS 29.4000 -44.4000 50 hurdat_atl main 2060 2050 O_____________ hurdat_atl AL121955 29.4000 -44.4000 TS 50 0 4 13
1955283N29318 1955 84 NA NA NOT_NAMED 1955-10-12 03:00:00 TS 29.5575 -44.3300 main 2042 2035 P_____________ AL121955 29.5575 -44.3300 TS 50 0 3 30
1955283N29318 1955 84 NA NA NOT_NAMED 1955-10-12 06:00:00 TS 29.7000 -44.2000 50 hurdat_atl main 2035 2028 O_____________ hurdat_atl AL121955 29.7000 -44.2000 TS 50 0 4 41
1955283N29318 1955 84 NA NA NOT_NAMED 1955-10-12 09:00:00 TS 29.8499 -44.0374 main 2031 2014 P_____________ AL121955 29.8499 -44.0374 TS 50 0 5 49
1955283N29318 1955 84 NA NA NOT_NAMED 1955-10-12 12:00:00 TS 30.0000 -43.8000 50 hurdat_atl main 2017 2010 O_____________ hurdat_atl AL121955 30.0000 -43.8000 TS 50 0 6 57
1955283N29318 1955 84 NA NA NOT_NAMED 1955-10-12 15:00:00 TS 30.1498 -43.5023 main 2017 2007 P_____________ AL121955 30.1498 -43.5023 TS 50 0 7 64
1955283N29318 1955 84 NA NA NOT_NAMED 1955-10-12 18:00:00 TS 30.3000 -43.1000 50 hurdat_atl main 2011 2008 O_____________ hurdat_atl AL121955 30.3000 -43.1000 TS 50 0 9 70
1955283N29318 1955 84 NA NA NOT_NAMED 1955-10-12 21:00:00 TS 30.4352 -42.5723 main 2020 2014 P_____________ AL121955 30.4352 -42.5723 TS 50 0 10 72
1955283N29318 1955 84 NA NA NOT_NAMED 1955-10-13 00:00:00 TS 30.6000 -42.0000 50 hurdat_atl main 2023 2017 O_____________ hurdat_atl AL121955 30.6000 -42.0000 TS 50 0 10 68
1955283N29318 1955 84 NA NA NOT_NAMED 1955-10-13 03:00:00 TS 30.8122 -41.4921 main 2024 2011 P_____________ AL121955 30.8122 -41.4921 TS 50 0 10 60
1955283N29318 1955 84 NA NA NOT_NAMED 1955-10-13 06:00:00 TS 31.1000 -41.0000 50 hurdat_atl main 2016 2004 O_____________ hurdat_atl AL121955 31.1000 -41.0000 TS 50 0 11 53
1955283N29318 1955 84 NA NA NOT_NAMED 1955-10-13 09:00:00 TS 31.4623 -40.4997 main 1999 1979 P_____________ AL121955 31.4623 -40.4997 TS 50 0 12 47
1955283N29318 1955 84 NA NA NOT_NAMED 1955-10-13 12:00:00 TS 31.9000 -40.0000 50 hurdat_atl main 1984 1970 O_____________ hurdat_atl AL121955 31.9000 -40.0000 TS 50 0 12 45
1955283N29318 1955 84 NA NA NOT_NAMED 1955-10-13 15:00:00 TS 32.3024 -39.4982 main 1970 1940 P_____________ AL121955 32.3024 -39.4982 TS 50 0 13 40
1955283N29318 1955 84 NA NA NOT_NAMED 1955-10-13 18:00:00 TS 32.9000 -39.0000 50 hurdat_atl main 1940 1885 O_____________ hurdat_atl AL121955 32.9000 -39.0000 TS 50 0 18 28
1955283N29318 1955 84 NA NA NOT_NAMED 1955-10-13 21:00:00 TS 33.8599 -38.5000 main 1876 1811 P_____________ AL121955 33.8599 -38.5000 TS 50 0 23 22
1955283N29318 1955 84 NA NA NOT_NAMED 1955-10-14 00:00:00 TS 35.0000 -38.0000 50 hurdat_atl main 1808 1754 O_____________ hurdat_atl AL121955 35.0000 -38.0000 TS 50 0 23 21
1955283N29318 1955 84 NA NA NOT_NAMED 1955-10-14 03:00:00 TS 36.0474 -37.4978 main 1754 1691 P_____________ AL121955 36.0474 -37.4978 TS 50 0 23 20
1955283N29318 1955 84 NA NA NOT_NAMED 1955-10-14 06:00:00 TS 37.2000 -37.0000 50 hurdat_atl main 1690 1625 O_____________ hurdat_atl AL121955 37.2000 -37.0000 TS 50 0 26 18
1955283N29318 1955 84 NA NA NOT_NAMED 1955-10-14 09:00:00 TS 38.5429 -36.5047 main 1625 1564 P_____________ AL121955 38.5429 -36.5047 TS 50 0 29 16
1955283N29318 1955 84 NA NA NOT_NAMED 1955-10-14 12:00:00 TS 40.0000 -36.0000 50 hurdat_atl main 1558 O_____________ hurdat_atl AL121955 40.0000 -36.0000 TS 50 0 30 15

IBTrACS Databaseについて

本データベースは、米国NOAAが公開する1842年以降の世界の熱帯低気圧のベストトラックデータアーカイブInternational Best Track Archive for Climate Stewardship (IBTrACS)を、ウェブで閲覧しやすい形式に変換したものです。

最終更新日:2021-12-01